createdAt,value
2023-02-22T00:01:35.629Z,64.52
2023-02-22T00:04:07.026Z,64.72
2023-02-22T00:06:34.146Z,64.97
2023-02-22T00:09:02.612Z,64.70
2023-02-22T00:11:31.707Z,64.76
2023-02-22T00:13:58.938Z,65.01
2023-02-22T00:16:26.802Z,65.47
2023-02-22T00:18:54.593Z,65.18
2023-02-22T00:21:22.404Z,65.39
2023-02-22T00:23:49.934Z,65.27
2023-02-22T00:26:23.421Z,65.32
2023-02-22T00:28:54.592Z,65.51
2023-02-22T00:31:21.879Z,65.78
2023-02-22T00:33:49.719Z,65.57
2023-02-22T00:36:17.464Z,65.57
2023-02-22T00:38:44.303Z,65.63
2023-02-22T00:41:12.229Z,65.70
2023-02-22T00:43:39.067Z,65.70
2023-02-22T00:46:06.259Z,65.71
2023-02-22T00:48:33.078Z,65.78
2023-02-22T00:51:00.003Z,65.92
2023-02-22T00:53:26.923Z,66.13
2023-02-22T00:55:54.352Z,65.96
2023-02-22T00:58:21.831Z,66.37
2023-02-22T01:00:48.964Z,65.83
2023-02-22T01:03:18.225Z,65.99
2023-02-22T01:05:45.606Z,66.13
2023-02-22T01:08:15.578Z,66.15
2023-02-22T01:10:42.908Z,66.00
2023-02-22T01:13:12.590Z,65.98
2023-02-22T01:15:42.045Z,65.96
2023-02-22T01:18:09.779Z,66.18
2023-02-22T01:20:37.364Z,66.89
2023-02-22T01:23:07.905Z,66.60
2023-02-22T01:25:35.870Z,67.10
2023-02-22T01:28:05.736Z,67.02
2023-02-22T01:30:35.252Z,67.40
2023-02-22T01:33:04.324Z,67.11
2023-02-22T01:35:35.324Z,67.02
2023-02-22T01:38:02.725Z,66.76
2023-02-22T01:40:32.991Z,66.81
2023-02-22T01:43:02.365Z,66.92
2023-02-22T01:45:34.633Z,66.53
2023-02-22T01:48:13.387Z,66.57
2023-02-22T01:50:47.665Z,66.50
2023-02-22T01:53:18.241Z,66.75
2023-02-22T01:55:47.974Z,67.09
2023-02-22T01:58:18.762Z,67.23
2023-02-22T02:00:45.917Z,67.78
2023-02-22T02:03:18.432Z,67.88
2023-02-22T02:05:46.111Z,68.24
2023-02-22T02:08:24.332Z,68.72
2023-02-22T02:10:53.711Z,69.21
2023-02-22T02:13:20.654Z,69.53
2023-02-22T02:15:49.901Z,69.40
2023-02-22T02:18:16.764Z,69.64
2023-02-22T02:21:08.176Z,69.91
2023-02-22T02:24:05.057Z,70.01
2023-02-22T02:26:53.776Z,69.73
2023-02-22T02:29:43.570Z,69.96
2023-02-22T02:32:44.605Z,70.68
2023-02-22T02:36:11.889Z,70.54
2023-02-22T02:38:59.308Z,71.01
2023-02-22T02:41:46.644Z,70.75
2023-02-22T02:44:29.147Z,71.00
2023-02-22T02:47:03.091Z,70.95
2023-02-22T02:49:39.857Z,70.82
2023-02-22T02:52:11.462Z,71.46
2023-02-22T02:54:40.121Z,71.34
2023-02-22T02:57:09.482Z,71.82
2023-02-22T02:59:38.439Z,71.76
2023-02-22T03:02:34.362Z,72.28
2023-02-22T03:05:07.547Z,71.85
2023-02-22T03:08:04.835Z,71.64
2023-02-22T03:10:52.665Z,71.52
2023-02-22T03:13:48.578Z,71.73
2023-02-22T03:16:19.796Z,71.54
2023-02-22T03:18:55.583Z,71.65
2023-02-22T03:21:41.398Z,71.98
2023-02-22T03:24:14.340Z,71.78
2023-02-22T03:26:46.556Z,71.47
2023-02-22T03:29:17.959Z,71.88
2023-02-22T03:31:51.170Z,71.56
2023-02-22T03:34:27.912Z,72.02
2023-02-22T03:37:06.594Z,71.58
2023-02-22T03:39:36.908Z,71.39
2023-02-22T03:42:13.867Z,71.49
2023-02-22T03:44:43.891Z,71.44
2023-02-22T03:47:19.407Z,71.38
2023-02-22T03:49:53.969Z,70.96
2023-02-22T03:52:23.524Z,71.26
2023-02-22T03:54:54.948Z,71.08
2023-02-22T03:57:37.506Z,71.25
2023-02-22T04:00:08.965Z,71.45
2023-02-22T04:02:44.824Z,71.29
2023-02-22T04:05:18.297Z,71.45
2023-02-22T04:07:45.705Z,71.95
2023-02-22T04:10:16.063Z,72.30
2023-02-22T04:12:43.774Z,72.37
2023-02-22T04:15:15.582Z,72.79
2023-02-22T04:17:43.629Z,72.66
2023-02-22T04:20:13.822Z,72.87
2023-02-22T04:22:48.655Z,73.29
2023-02-22T04:25:16.097Z,73.10
2023-02-22T04:27:43.772Z,72.93
2023-02-22T04:30:12.373Z,73.59
2023-02-22T04:32:39.699Z,73.76
2023-02-22T04:35:07.964Z,73.77
2023-02-22T04:37:35.357Z,73.68
2023-02-22T04:40:08.981Z,73.84
2023-02-22T04:42:37.201Z,73.79
2023-02-22T04:45:06.121Z,73.70
2023-02-22T04:47:33.634Z,73.70
2023-02-22T04:50:00.972Z,73.53
2023-02-22T04:52:29.594Z,73.82
2023-02-22T04:54:57.015Z,73.83
2023-02-22T04:57:24.573Z,74.06
2023-02-22T04:59:51.412Z,74.44
2023-02-22T05:02:19.877Z,74.60
2023-02-22T05:04:46.710Z,75.04
2023-02-22T05:07:13.618Z,74.71
2023-02-22T05:09:40.794Z,74.99
2023-02-22T05:12:07.817Z,74.93
2023-02-22T05:14:35.532Z,75.10
2023-02-22T05:17:03.550Z,75.21
2023-02-22T05:19:30.767Z,75.04
2023-02-22T05:21:57.799Z,75.39
2023-02-22T05:24:24.897Z,75.33
2023-02-22T05:26:53.268Z,75.62
2023-02-22T05:29:21.117Z,75.20
2023-02-22T05:31:48.215Z,75.09
2023-02-22T05:34:15.684Z,75.05
2023-02-22T05:36:42.653Z,74.92
2023-02-22T05:39:09.977Z,74.24
2023-02-22T05:41:36.784Z,74.58
2023-02-22T05:44:04.099Z,73.91
2023-02-22T05:46:31.116Z,74.02
2023-02-22T05:48:58.501Z,73.78
2023-02-22T05:51:25.475Z,73.67
2023-02-22T05:53:52.633Z,73.96
2023-02-22T05:56:29.025Z,73.91
2023-02-22T05:58:56.975Z,73.86
2023-02-22T06:01:24.162Z,73.39
2023-02-22T06:03:51.936Z,72.48
2023-02-22T06:06:22.276Z,72.61
2023-02-22T06:08:49.895Z,72.21
2023-02-22T06:11:17.116Z,72.13
2023-02-22T06:13:53.020Z,71.82
2023-02-22T06:16:22.520Z,71.76
2023-02-22T06:18:50.325Z,71.58
2023-02-22T06:21:18.040Z,71.75
2023-02-22T06:23:45.316Z,71.61
2023-02-22T06:26:13.025Z,71.83
2023-02-22T06:28:39.867Z,71.90
2023-02-22T06:31:06.934Z,71.26
2023-02-22T06:33:33.807Z,71.16
2023-02-22T06:36:01.305Z,71.10
2023-02-22T06:38:29.440Z,71.06
2023-02-22T06:40:56.547Z,70.63
2023-02-22T06:43:24.961Z,70.23
2023-02-22T06:45:52.876Z,69.63
2023-02-22T06:48:19.865Z,68.92
2023-02-22T06:50:46.978Z,68.47
2023-02-22T06:53:13.781Z,68.68
2023-02-22T06:55:40.873Z,68.19
2023-02-22T06:58:07.644Z,68.35
2023-02-22T07:00:34.770Z,66.98
2023-02-22T07:03:03.959Z,66.82
2023-02-22T07:05:31.112Z,67.12
2023-02-22T07:08:04.546Z,66.86
2023-02-22T07:10:33.531Z,66.49
2023-02-22T07:13:01.242Z,66.12
2023-02-22T07:15:30.703Z,65.84
2023-02-22T07:17:57.920Z,65.29
2023-02-22T07:20:27.167Z,64.83
2023-02-22T07:22:54.383Z,63.79
2023-02-22T07:25:23.229Z,63.92
2023-02-22T07:27:52.500Z,64.26
2023-02-22T07:30:31.126Z,63.42
2023-02-22T07:33:01.161Z,63.32
2023-02-22T07:35:33.807Z,63.00
2023-02-22T07:38:00.880Z,62.19
2023-02-22T07:40:28.462Z,61.68
2023-02-22T07:43:01.221Z,61.73
2023-02-22T07:45:35.886Z,61.89
2023-02-22T07:48:04.308Z,61.71
2023-02-22T07:50:32.468Z,60.95
2023-02-22T07:53:03.149Z,60.75
2023-02-22T07:55:32.316Z,60.78
2023-02-22T07:58:02.311Z,59.98
2023-02-22T08:00:35.114Z,59.65
2023-02-22T08:03:05.029Z,60.21
2023-02-22T08:05:33.747Z,59.90
2023-02-22T08:08:00.571Z,59.52
2023-02-22T08:10:28.523Z,59.75
2023-02-22T08:12:56.043Z,59.31
2023-02-22T08:15:34.932Z,58.66
2023-02-22T08:18:04.036Z,58.97
2023-02-22T08:20:31.372Z,58.44
2023-02-22T08:22:59.130Z,58.80
2023-02-22T08:25:29.553Z,58.91
2023-02-22T08:28:08.922Z,58.69
2023-02-22T08:30:40.081Z,58.44
2023-02-22T08:33:07.710Z,57.62
2023-02-22T08:35:35.055Z,58.00
2023-02-22T08:38:05.535Z,57.51
2023-02-22T08:40:35.186Z,57.11
2023-02-22T08:43:03.452Z,57.34
2023-02-22T08:45:30.685Z,57.48
2023-02-22T08:47:58.604Z,56.54
2023-02-22T08:50:33.591Z,56.36
2023-02-22T08:53:02.306Z,56.44
2023-02-22T08:55:32.392Z,56.35
2023-02-22T08:58:03.174Z,55.65
2023-02-22T09:00:33.297Z,55.17
2023-02-22T09:03:02.216Z,55.35
2023-02-22T09:05:31.459Z,55.11
2023-02-22T09:07:59.354Z,55.33
2023-02-22T09:10:29.364Z,54.70
2023-02-22T09:12:57.180Z,54.78
2023-02-22T09:15:25.903Z,55.11
2023-02-22T09:17:53.609Z,55.15
2023-02-22T09:20:22.376Z,55.65
2023-02-22T09:22:50.140Z,55.30
2023-02-22T09:25:18.333Z,55.80
2023-02-22T09:27:51.747Z,55.09
2023-02-22T09:30:23.985Z,54.37
2023-02-22T09:32:53.334Z,54.54
2023-02-22T09:35:26.963Z,54.23
2023-02-22T09:37:58.509Z,54.18
2023-02-22T09:40:29.950Z,54.37
2023-02-22T09:43:21.241Z,53.71
2023-02-22T09:46:26.918Z,53.19
2023-02-22T09:49:00.091Z,53.15
2023-02-22T09:51:49.415Z,52.94
2023-02-22T09:54:29.753Z,51.77
2023-02-22T09:57:00.719Z,51.78
2023-02-22T09:59:32.048Z,50.99
2023-02-22T10:02:32.782Z,50.79
2023-02-22T10:05:12.203Z,50.46
2023-02-22T10:07:47.184Z,50.72
2023-02-22T10:10:20.945Z,51.15
2023-02-22T10:12:56.959Z,51.13
2023-02-22T10:15:35.845Z,50.65
2023-02-22T10:18:32.935Z,50.00
2023-02-22T10:21:11.878Z,50.65
2023-02-22T10:23:47.302Z,49.58
2023-02-22T10:26:14.059Z,49.40
2023-02-22T10:28:55.375Z,50.12
2023-02-22T10:31:33.894Z,50.14
2023-02-22T10:34:03.311Z,49.51
2023-02-22T10:36:30.432Z,50.38
2023-02-22T10:39:12.355Z,49.34
2023-02-22T10:41:49.349Z,49.79
2023-02-22T10:44:19.160Z,49.51
2023-02-22T10:46:47.470Z,50.09
2023-02-22T10:49:21.922Z,50.13
2023-02-22T10:52:01.197Z,50.23
2023-02-22T10:54:40.584Z,49.60
2023-02-22T10:57:07.861Z,49.25
2023-02-22T10:59:40.165Z,50.22
2023-02-22T11:02:29.642Z,50.90
2023-02-22T11:05:01.441Z,50.19
2023-02-22T11:07:28.577Z,50.64
2023-02-22T11:10:08.246Z,50.29
2023-02-22T11:12:37.753Z,50.26
2023-02-22T11:15:22.558Z,49.93
2023-02-22T11:17:52.563Z,49.04
2023-02-22T11:20:25.726Z,49.91
2023-02-22T11:23:02.004Z,49.07
2023-02-22T11:25:33.797Z,48.49
2023-02-22T11:28:16.718Z,49.24
2023-02-22T11:30:49.712Z,48.57
2023-02-22T11:33:17.060Z,48.79
2023-02-22T11:35:52.831Z,49.48
2023-02-22T11:38:21.315Z,48.86
2023-02-22T11:41:07.991Z,48.74
2023-02-22T11:43:35.495Z,49.72
2023-02-22T11:46:08.373Z,49.20
2023-02-22T11:48:39.678Z,48.61
2023-02-22T11:51:14.810Z,49.09
2023-02-22T11:54:22.726Z,49.30
2023-02-22T11:56:55.733Z,49.01
2023-02-22T11:59:40.886Z,49.18
2023-02-22T12:02:57.354Z,48.72
2023-02-22T12:05:37.453Z,48.88
2023-02-22T12:08:26.993Z,48.87
2023-02-22T12:11:10.251Z,48.55
2023-02-22T12:14:09.795Z,48.11
2023-02-22T12:17:23.524Z,47.55
2023-02-22T12:19:52.739Z,47.79
2023-02-22T12:22:25.989Z,48.07
2023-02-22T12:25:08.542Z,47.71
2023-02-22T12:27:42.414Z,47.98
2023-02-22T12:30:16.595Z,46.61
2023-02-22T12:32:48.704Z,47.12
2023-02-22T12:35:19.513Z,46.87
2023-02-22T12:38:01.914Z,46.81
2023-02-22T12:40:54.665Z,46.55
2023-02-22T12:43:47.436Z,46.29
2023-02-22T12:46:35.398Z,45.65
2023-02-22T12:49:42.764Z,46.09
2023-02-22T12:52:22.344Z,45.43
2023-02-22T12:55:02.162Z,45.09
2023-02-22T12:57:51.840Z,45.33
2023-02-22T13:00:28.834Z,44.75
2023-02-22T13:03:17.746Z,45.02
2023-02-22T13:05:51.490Z,44.71
2023-02-22T13:08:18.721Z,45.16
2023-02-22T13:11:04.626Z,45.04
2023-02-22T13:13:41.696Z,44.55
2023-02-22T13:16:21.923Z,44.71
2023-02-22T13:19:00.644Z,45.43
2023-02-22T13:21:37.188Z,45.87
2023-02-22T13:24:33.946Z,45.22
2023-02-22T13:27:06.757Z,45.81
2023-02-22T13:29:41.724Z,45.57
2023-02-22T13:32:13.704Z,44.89
2023-02-22T13:35:18.261Z,45.34
2023-02-22T13:38:16.838Z,44.66
2023-02-22T13:41:19.147Z,44.81
2023-02-22T13:44:15.154Z,45.52
2023-02-22T13:46:57.127Z,45.13
2023-02-22T13:49:52.083Z,45.06
2023-02-22T13:52:24.776Z,45.35
2023-02-22T13:54:58.018Z,45.18
2023-02-22T13:57:33.543Z,45.97
2023-02-22T14:00:15.750Z,45.51
2023-02-22T14:03:02.829Z,45.29
2023-02-22T14:05:42.529Z,45.66
2023-02-22T14:08:37.109Z,45.54
2023-02-22T14:11:14.148Z,46.00
2023-02-22T14:14:00.853Z,46.24
2023-02-22T14:16:31.959Z,46.08
2023-02-22T14:19:13.505Z,46.13
2023-02-22T14:22:04.335Z,46.30
2023-02-22T14:24:46.963Z,46.41
2023-02-22T14:27:17.680Z,46.47
2023-02-22T14:30:01.464Z,46.41
2023-02-22T14:32:34.545Z,46.21
2023-02-22T14:35:25.498Z,46.74
2023-02-22T14:37:58.344Z,47.41
2023-02-22T14:40:34.983Z,47.26
2023-02-22T14:43:12.853Z,47.27
2023-02-22T14:46:01.787Z,47.30
2023-02-22T14:48:45.085Z,47.33
2023-02-22T14:51:26.864Z,47.44
2023-02-22T14:54:20.648Z,47.54
2023-02-22T14:57:12.247Z,47.92
2023-02-22T14:59:53.257Z,48.04
2023-02-22T15:02:26.076Z,48.28
2023-02-22T15:04:56.565Z,48.58
2023-02-22T15:07:30.731Z,48.74
2023-02-22T15:10:41.677Z,48.81
2023-02-22T15:13:28.033Z,49.21
2023-02-22T15:16:02.111Z,49.54
2023-02-22T15:18:40.687Z,49.64
2023-02-22T15:21:13.437Z,49.69
2023-02-22T15:23:57.147Z,49.79
2023-02-22T15:26:31.615Z,50.37
2023-02-22T15:28:59.959Z,50.72
2023-02-22T15:31:30.453Z,51.20
2023-02-22T15:33:58.185Z,51.59
2023-02-22T15:36:33.772Z,51.62
2023-02-22T15:39:01.188Z,51.98
2023-02-22T15:41:34.138Z,52.17
2023-02-22T15:44:28.005Z,52.46
2023-02-22T15:46:56.621Z,52.74
2023-02-22T15:49:24.815Z,52.86
2023-02-22T15:52:04.117Z,53.28
2023-02-22T15:54:42.729Z,53.34
2023-02-22T15:57:14.589Z,53.54
2023-02-22T15:59:45.645Z,53.59
2023-02-22T16:02:32.750Z,53.83
2023-02-22T16:05:07.199Z,54.21
2023-02-22T16:07:45.316Z,54.05
2023-02-22T16:10:27.533Z,54.33
2023-02-22T16:13:06.666Z,54.59
2023-02-22T16:15:35.844Z,54.66
2023-02-22T16:18:26.089Z,54.82
2023-02-22T16:21:21.654Z,55.30
2023-02-22T16:23:55.971Z,55.42
2023-02-22T16:26:34.383Z,55.92
2023-02-22T16:29:08.732Z,55.63
2023-02-22T16:31:40.208Z,56.19
2023-02-22T16:34:08.430Z,56.83
2023-02-22T16:36:45.566Z,57.26
2023-02-22T16:39:31.448Z,58.02
2023-02-22T16:42:06.082Z,58.74
2023-02-22T16:44:34.729Z,58.87
2023-02-22T16:47:01.690Z,59.04
2023-02-22T16:49:28.601Z,59.33
2023-02-22T16:52:01.770Z,59.59
2023-02-22T16:54:34.341Z,60.02
2023-02-22T16:57:04.061Z,60.41
2023-02-22T16:59:39.270Z,61.15
2023-02-22T17:02:07.747Z,61.22
2023-02-22T17:04:34.788Z,61.61
2023-02-22T17:07:05.106Z,62.20
2023-02-22T17:09:33.181Z,62.39
2023-02-22T17:12:00.835Z,62.47
2023-02-22T17:14:32.466Z,62.78
2023-02-22T17:17:00.298Z,63.37
2023-02-22T17:19:27.714Z,63.70
2023-02-22T17:21:54.869Z,63.95
2023-02-22T17:24:25.012Z,64.92
2023-02-22T17:26:54.891Z,65.12
2023-02-22T17:29:21.937Z,65.13
2023-02-22T17:31:49.320Z,65.60
2023-02-22T17:34:21.836Z,66.30
2023-02-22T17:36:49.402Z,66.50
2023-02-22T17:39:16.537Z,66.85
2023-02-22T17:41:43.470Z,67.52
2023-02-22T17:44:10.299Z,67.77
2023-02-22T17:46:37.562Z,68.13
2023-02-22T17:49:04.603Z,68.03
2023-02-22T17:51:31.627Z,68.39
2023-02-22T17:54:01.155Z,69.21
2023-02-22T17:56:28.233Z,68.93
2023-02-22T17:58:55.699Z,68.89
2023-02-22T18:01:29.034Z,69.16
2023-02-22T18:03:59.664Z,69.49
2023-02-22T18:06:30.002Z,69.65
2023-02-22T18:08:58.920Z,69.97
2023-02-22T18:11:28.142Z,69.92
2023-02-22T18:13:57.482Z,69.77
2023-02-22T18:16:26.142Z,70.19
2023-02-22T18:18:56.011Z,70.69
2023-02-22T18:21:23.769Z,70.85
2023-02-22T18:23:50.854Z,70.83
2023-02-22T18:26:19.698Z,71.20
2023-02-22T18:28:49.196Z,71.50
2023-02-22T18:31:18.470Z,71.85
2023-02-22T18:33:48.230Z,72.03
2023-02-22T18:36:16.765Z,71.81
2023-02-22T18:38:44.625Z,71.62
2023-02-22T18:41:16.234Z,72.38
2023-02-22T18:43:44.112Z,72.02
2023-02-22T18:46:13.825Z,72.51
2023-02-22T18:48:41.578Z,72.57
2023-02-22T18:51:11.352Z,72.88
2023-02-22T18:53:41.608Z,73.29
2023-02-22T18:56:11.861Z,73.31
2023-02-22T18:58:39.344Z,73.47
2023-02-22T19:01:07.611Z,74.25
2023-02-22T19:03:38.242Z,74.35
2023-02-22T19:06:09.876Z,74.84
2023-02-22T19:08:39.688Z,74.99
2023-02-22T19:11:12.935Z,75.42
2023-02-22T19:13:39.884Z,75.09
2023-02-22T19:16:07.545Z,75.10
2023-02-22T19:18:35.023Z,74.93
2023-02-22T19:21:03.750Z,75.02
2023-02-22T19:23:34.523Z,74.32
2023-02-22T19:26:04.333Z,74.79
2023-02-22T19:28:36.974Z,74.82
2023-02-22T19:31:18.668Z,74.62
2023-02-22T19:33:47.586Z,75.13
2023-02-22T19:36:15.675Z,75.20
2023-02-22T19:38:43.422Z,75.50
2023-02-22T19:41:22.183Z,75.26
2023-02-22T19:43:51.808Z,75.47
2023-02-22T19:46:21.222Z,75.62
2023-02-22T19:48:49.259Z,75.63
2023-02-22T19:51:18.243Z,75.77
2023-02-22T19:53:46.320Z,75.77
2023-02-22T19:56:16.855Z,75.77
2023-02-22T19:58:45.521Z,75.87
2023-02-22T20:01:22.889Z,76.08
2023-02-22T20:03:54.579Z,76.21
2023-02-22T20:06:26.465Z,76.68
2023-02-22T20:08:54.932Z,77.21
2023-02-22T20:11:23.491Z,77.35
2023-02-22T20:13:50.676Z,77.55
2023-02-22T20:16:17.931Z,77.71
2023-02-22T20:18:46.370Z,78.60
2023-02-22T20:21:20.502Z,78.89
2023-02-22T20:23:48.117Z,79.12
2023-02-22T20:29:31.583Z,79.11
2023-02-22T20:32:11.415Z,79.89
2023-02-22T20:34:38.714Z,80.39
2023-02-22T20:37:05.473Z,80.51
2023-02-22T20:39:32.713Z,80.63
2023-02-22T20:42:04.695Z,80.60
2023-02-22T20:44:31.722Z,80.90
2023-02-22T20:46:58.787Z,81.27
2023-02-22T20:49:27.277Z,81.25
2023-02-22T20:51:54.070Z,81.21
2023-02-22T20:54:21.082Z,81.75
2023-02-22T20:56:48.453Z,81.54
2023-02-22T20:59:18.420Z,81.71
2023-02-22T21:01:47.565Z,81.78
2023-02-22T21:04:14.794Z,81.85
2023-02-22T21:06:41.915Z,81.87
2023-02-22T21:09:16.288Z,82.46
2023-02-22T21:11:44.267Z,82.86
2023-02-22T21:14:16.783Z,83.27
2023-02-22T21:16:46.581Z,83.42
2023-02-22T21:19:28.038Z,83.49
2023-02-22T21:21:58.521Z,84.02
2023-02-22T21:24:29.579Z,84.00
2023-02-22T21:26:59.096Z,83.84
2023-02-22T21:29:27.113Z,84.08
2023-02-22T21:31:54.140Z,83.72
2023-02-22T21:34:22.357Z,84.19
2023-02-22T21:36:51.175Z,84.58
2023-02-22T21:39:18.207Z,84.44
2023-02-22T21:41:47.059Z,85.30
2023-02-22T21:44:15.063Z,85.32
2023-02-22T21:46:42.205Z,85.61
2023-02-22T21:49:11.182Z,85.36
2023-02-22T21:51:38.289Z,86.13
2023-02-22T21:54:08.361Z,86.24
2023-02-22T21:56:41.324Z,86.52
2023-02-22T21:59:15.228Z,86.39
2023-02-22T22:01:50.136Z,85.80
2023-02-22T22:04:20.424Z,86.08
2023-02-22T22:06:50.972Z,86.64
2023-02-22T22:09:19.605Z,86.91
2023-02-22T22:11:49.705Z,87.02
2023-02-22T22:14:19.026Z,87.27
2023-02-22T22:16:47.998Z,86.63
2023-02-22T22:19:15.447Z,87.23
2023-02-22T22:21:42.908Z,87.23
2023-02-22T22:24:13.640Z,87.24
2023-02-22T22:26:40.857Z,87.36
2023-02-22T22:29:10.482Z,87.16
2023-02-22T22:31:38.049Z,87.27
2023-02-22T22:34:05.716Z,87.33
2023-02-22T22:36:34.454Z,87.59
2023-02-22T22:39:01.540Z,87.93
2023-02-22T22:41:28.505Z,88.04
2023-02-22T22:43:55.968Z,88.39
2023-02-22T22:46:23.611Z,89.30
2023-02-22T22:48:50.438Z,89.81
2023-02-22T22:51:20.951Z,89.48
2023-02-22T22:53:49.569Z,89.95
2023-02-22T22:56:17.717Z,89.88
2023-02-22T22:58:50.831Z,90.26
2023-02-22T23:01:20.542Z,90.40
2023-02-22T23:03:55.014Z,90.16
2023-02-22T23:06:24.995Z,90.42
2023-02-22T23:09:00.125Z,90.13
2023-02-22T23:11:33.868Z,89.38
2023-02-22T23:14:03.693Z,89.66
2023-02-22T23:16:34.854Z,89.60
2023-02-22T23:19:01.884Z,89.51
2023-02-22T23:21:28.709Z,89.44
2023-02-22T23:23:58.598Z,89.04
2023-02-22T23:26:26.791Z,89.00
2023-02-22T23:28:59.320Z,89.37
2023-02-22T23:31:28.985Z,89.35
2023-02-22T23:33:58.889Z,88.74
2023-02-22T23:36:27.125Z,89.40
2023-02-22T23:38:54.383Z,89.37
2023-02-22T23:41:25.039Z,89.67
2023-02-22T23:43:52.006Z,89.98
2023-02-22T23:46:19.606Z,89.71
2023-02-22T23:48:54.838Z,89.99
2023-02-22T23:51:27.052Z,89.59
2023-02-22T23:53:58.203Z,89.82
2023-02-22T23:56:27.413Z,90.17
2023-02-22T23:58:57.530Z,90.10
